createdAt,value
2019-02-12T00:02:06.482Z,2.16
2019-02-12T00:07:06.109Z,2.15
2019-02-12T00:11:06.144Z,2.28
2019-02-12T00:16:06.523Z,2.36
2019-02-12T00:21:09.070Z,2.23
2019-02-12T00:26:06.865Z,2.15
2019-02-12T00:31:06.406Z,2.1
2019-02-12T00:36:05.968Z,2.19
2019-02-12T00:41:06.909Z,2.09
2019-02-12T00:46:06.264Z,2.06
2019-02-12T00:50:06.342Z,2.1
2019-02-12T00:55:06.920Z,2.21
2019-02-12T01:00:07.813Z,2.24
2019-02-12T01:05:06.208Z,2.23
2019-02-12T01:10:06.064Z,2.25
2019-02-12T01:15:07.985Z,2.16
2019-02-12T01:20:06.051Z,2.43
2019-02-12T01:25:06.714Z,2.61
2019-02-12T01:29:06.680Z,2.45
2019-02-12T01:34:07.182Z,2.34
2019-02-12T01:39:07.085Z,2.5
2019-02-12T01:44:06.712Z,2.56
2019-02-12T01:49:06.909Z,2.56
2019-02-12T01:54:06.483Z,2.46
2019-02-12T01:59:07.051Z,2.42
2019-02-12T02:04:10.183Z,2.49
2019-02-12T02:08:07.925Z,2.46
2019-02-12T02:13:08.054Z,2.49
2019-02-12T02:18:06.543Z,2.57
2019-02-12T02:23:07.334Z,2.51
2019-02-12T02:28:06.921Z,2.52
2019-02-12T02:33:06.762Z,2.57
2019-02-12T02:38:06.469Z,2.56
2019-02-12T02:42:06.433Z,2.49
2019-02-12T02:47:06.472Z,2.3
2019-02-12T02:52:06.205Z,2.34
2019-02-12T02:57:06.938Z,2.36
2019-02-12T03:02:06.340Z,2.15
2019-02-12T03:07:07.054Z,2.47
2019-02-12T03:12:07.006Z,2.42
2019-02-12T03:16:06.158Z,2.4
2019-02-12T03:21:06.794Z,2.35
2019-02-12T03:26:06.367Z,2.35
2019-02-12T03:31:06.881Z,2.3
2019-02-12T03:36:06.876Z,2.29
2019-02-12T03:41:06.728Z,2.19
2019-02-12T03:45:08.329Z,2.08
2019-02-12T03:46:07.102Z,2.08
2019-02-12T03:50:06.564Z,2.03
2019-02-12T03:55:06.231Z,1.98
2019-02-12T04:00:09.235Z,2.21
2019-02-12T04:05:07.029Z,2.19
2019-02-12T04:10:06.837Z,2.19
2019-02-12T04:15:07.983Z,1.97
2019-02-12T04:20:06.332Z,1.62
2019-02-12T04:24:06.145Z,1.57
2019-02-12T04:29:06.825Z,1.7
2019-02-12T04:34:06.303Z,2.01
2019-02-12T04:39:06.416Z,2.15
2019-02-12T04:44:06.304Z,1.99
2019-02-12T04:49:06.764Z,1.91
2019-02-12T04:54:06.467Z,1.79
2019-02-12T04:59:06.186Z,1.93
2019-02-12T05:03:06.072Z,1.97
2019-02-12T05:08:07.028Z,2.09
2019-02-12T05:13:06.127Z,2.19
2019-02-12T05:18:06.934Z,2.21
2019-02-12T05:23:06.536Z,2.3
2019-02-12T05:28:06.701Z,2.25
2019-02-12T05:33:06.155Z,2.39
2019-02-12T05:37:07.280Z,2.2
2019-02-12T05:42:06.821Z,2.16
2019-02-12T05:47:07.391Z,2.31
2019-02-12T05:52:07.048Z,2.11
2019-02-12T05:57:06.639Z,2.08
2019-02-12T06:02:06.320Z,2.15
2019-02-12T06:07:06.962Z,2.14
2019-02-12T06:12:05.954Z,2.13
2019-02-12T06:16:06.731Z,2.19
2019-02-12T06:21:07.346Z,2.06
2019-02-12T06:26:07.395Z,2.17
2019-02-12T06:31:06.952Z,2.23
2019-02-12T06:36:06.499Z,2.19
2019-02-12T06:41:06.518Z,2.38
2019-02-12T06:46:06.201Z,2.42
2019-02-12T06:51:06.896Z,2.52
2019-02-12T06:55:06.912Z,2.38
2019-02-12T07:00:07.775Z,2.29
2019-02-12T07:05:06.345Z,2.4
2019-02-12T07:10:06.600Z,2.64
2019-02-12T07:15:07.177Z,2.54
2019-02-12T07:20:06.089Z,2.54
2019-02-12T07:25:06.646Z,2.61
2019-02-12T07:29:06.754Z,2.79
2019-02-12T07:34:07.090Z,2.81
2019-02-12T07:39:07.113Z,2.89
2019-02-12T07:44:06.735Z,2.97
2019-02-12T07:49:07.332Z,2.95
2019-02-12T07:54:07.075Z,2.95
2019-02-12T07:59:06.788Z,3.08
2019-02-12T08:04:06.611Z,2.82
2019-02-12T08:08:06.721Z,2.8
2019-02-12T08:13:06.933Z,2.8
2019-02-12T08:18:07.123Z,2.88
2019-02-12T08:23:06.743Z,2.82
2019-02-12T08:28:06.418Z,3
2019-02-12T08:33:07.148Z,3.06
2019-02-12T08:38:06.782Z,3.12
2019-02-12T08:42:06.689Z,3.18
2019-02-12T08:47:06.288Z,3.2
2019-02-12T08:52:06.934Z,3.31
2019-02-12T08:57:06.621Z,3.25
2019-02-12T09:02:06.785Z,3.36
2019-02-12T09:07:06.528Z,3.53
2019-02-12T09:12:06.474Z,3.39
2019-02-12T09:16:06.643Z,3.41
2019-02-12T09:21:06.366Z,3.42
2019-02-12T09:26:06.028Z,3.56
2019-02-12T09:31:06.790Z,3.67
2019-02-12T09:36:06.361Z,3.63
2019-02-12T09:41:06.460Z,3.75
2019-02-12T09:46:06.114Z,3.89
2019-02-12T09:50:07.073Z,3.93
2019-02-12T09:55:06.813Z,4.09
2019-02-12T10:00:08.324Z,5.17
2019-02-12T10:05:06.682Z,4.84
2019-02-12T10:10:06.834Z,6
2019-02-12T10:15:07.639Z,6.2
2019-02-12T10:20:07.001Z,5.97
2019-02-12T10:24:06.814Z,5.15
2019-02-12T10:29:06.416Z,5.04
2019-02-12T10:34:06.709Z,5.23
2019-02-12T10:39:06.894Z,4.87
2019-02-12T10:44:06.407Z,5.13
2019-02-12T10:49:06.762Z,5.07
2019-02-12T10:54:06.583Z,5.32
2019-02-12T10:58:08.514Z,4.8
2019-02-12T11:03:06.710Z,4.8
2019-02-12T11:08:06.315Z,4.59
2019-02-12T11:13:06.295Z,4.74
2019-02-12T11:18:06.858Z,4.66
2019-02-12T11:23:06.611Z,4.52
2019-02-12T11:28:06.205Z,4.59
2019-02-12T11:32:06.297Z,4.61
2019-02-12T11:37:06.940Z,4.67
2019-02-12T11:42:06.968Z,4.6
2019-02-12T11:47:06.560Z,4.71
2019-02-12T11:52:07.141Z,4.77
2019-02-12T11:57:06.824Z,4.65
2019-02-12T12:02:06.593Z,4.53
2019-02-12T12:06:06.607Z,4.6
2019-02-12T12:11:06.597Z,4.62
2019-02-12T12:16:07.182Z,4.74
2019-02-12T12:21:06.843Z,4.82
2019-02-12T12:26:06.489Z,4.98
2019-02-12T12:31:06.865Z,4.92
2019-02-12T12:36:06.545Z,4.81
2019-02-12T12:40:06.391Z,4.94
2019-02-12T12:45:07.949Z,5.16
2019-02-12T12:50:06.775Z,4.97
2019-02-12T12:55:06.547Z,4.95
2019-02-12T13:00:08.309Z,5.34
2019-02-12T13:05:08.527Z,5.28
2019-02-12T13:10:06.514Z,5.28
2019-02-12T13:14:06.293Z,5.4
2019-02-12T13:19:08.428Z,5.31
2019-02-12T13:24:06.245Z,5.38
2019-02-12T13:29:06.904Z,5.5
2019-02-12T13:34:05.988Z,5.33
2019-02-12T13:39:06.974Z,5.06
2019-02-12T13:44:06.590Z,5.34
2019-02-12T13:48:06.293Z,5.46
2019-02-12T13:53:06.981Z,5.41
2019-02-12T13:58:06.579Z,5.22
2019-02-12T14:03:06.343Z,5.09
2019-02-12T14:08:05.985Z,5.13
2019-02-12T14:13:09.192Z,5.03
2019-02-12T14:18:06.284Z,6.85
2019-02-12T14:23:06.088Z,5.63
2019-02-12T14:27:06.748Z,5.32
2019-02-12T14:32:06.153Z,5.53
2019-02-12T14:37:06.743Z,5
2019-02-12T14:42:06.030Z,4.97
2019-02-12T14:47:06.363Z,5.21
2019-02-12T14:52:06.352Z,5.08
2019-02-12T14:56:11.251Z,4.84
2019-02-12T15:01:06.597Z,4.73
2019-02-12T15:06:06.174Z,4.53
2019-02-12T15:11:06.151Z,4.45
2019-02-12T15:16:06.122Z,4.86
2019-02-12T15:21:06.740Z,4.65
2019-02-12T15:26:06.183Z,4.45
2019-02-12T15:30:08.654Z,3.86
2019-02-12T15:35:07.247Z,3.13
2019-02-12T15:40:06.945Z,3.08
2019-02-12T15:45:07.357Z,2.78
2019-02-12T15:50:06.921Z,2.7
2019-02-12T15:55:06.507Z,2.64
2019-02-12T16:00:08.826Z,2.43
2019-02-12T16:04:06.942Z,2.16
2019-02-12T16:09:06.787Z,1.85
2019-02-12T16:14:06.451Z,1.75
2019-02-12T16:19:09.692Z,1.73
2019-02-12T16:24:06.445Z,1.56
2019-02-12T16:29:07.196Z,1.32
2019-02-12T16:33:06.630Z,1.4
2019-02-12T16:38:06.415Z,1.43
2019-02-12T16:43:07.000Z,1.41
2019-02-12T16:48:06.888Z,1.25
2019-02-12T16:53:06.759Z,1.26
2019-02-12T16:58:07.048Z,0.97
2019-02-12T17:03:06.976Z,0.94
2019-02-12T17:08:07.269Z,0.54
2019-02-12T17:12:06.712Z,0.64
2019-02-12T17:17:06.746Z,0.81
2019-02-12T17:22:06.346Z,0.8
2019-02-12T17:27:07.113Z,1.08
2019-02-12T17:32:07.465Z,1.26
2019-02-12T17:37:06.608Z,1.16
2019-02-12T17:42:06.418Z,1.1
2019-02-12T17:46:06.610Z,1.22
2019-02-12T17:51:06.168Z,1.56
2019-02-12T17:56:06.189Z,1.64
2019-02-12T18:01:07.056Z,1.51
2019-02-12T18:06:06.839Z,1.64
2019-02-12T18:11:07.028Z,1.98
2019-02-12T18:16:06.821Z,1.85
2019-02-12T18:20:06.211Z,1.9
2019-02-12T18:25:06.883Z,2
2019-02-12T18:30:08.791Z,1.75
2019-02-12T18:35:06.374Z,1.73
2019-02-12T18:40:06.287Z,1.76
2019-02-12T18:45:08.010Z,1.51
2019-02-12T18:50:06.570Z,1.45
2019-02-12T18:54:06.613Z,1.37
2019-02-12T18:59:06.826Z,1.12
2019-02-12T19:04:06.673Z,1.04
2019-02-12T19:09:06.846Z,1.02
2019-02-12T19:14:06.578Z,1.16
2019-02-12T19:19:06.888Z,1.32
2019-02-12T19:28:07.374Z,1.73
2019-02-12T19:33:06.615Z,1.62
2019-02-12T19:38:06.316Z,1.64
2019-02-12T19:43:06.589Z,1.57
2019-02-12T19:48:06.110Z,1.64
2019-02-12T19:53:07.287Z,1.64
2019-02-12T19:58:07.035Z,1.68
2019-02-12T20:03:06.583Z,1.86
2019-02-12T20:07:06.730Z,2.19
2019-02-12T20:12:06.871Z,2.06
2019-02-12T20:17:06.397Z,1.85
2019-02-12T20:22:07.149Z,1.66
2019-02-12T20:27:07.346Z,1.5
2019-02-12T20:32:06.869Z,1.5
2019-02-12T20:37:06.570Z,1.43
2019-02-12T20:41:06.537Z,1.91
2019-02-12T20:46:07.013Z,2.32
2019-02-12T20:51:06.728Z,2.3
2019-02-12T20:56:06.371Z,2.23
2019-02-12T21:01:07.102Z,2.27
2019-02-12T21:06:07.281Z,2.34
2019-02-12T21:11:07.198Z,2.28
2019-02-12T21:16:07.063Z,2.35
2019-02-12T21:20:06.450Z,2.29
2019-02-12T21:25:06.320Z,2.27
2019-02-12T21:30:08.582Z,2.26
2019-02-12T21:35:06.327Z,2.53
2019-02-12T21:40:06.570Z,2.55
2019-02-12T21:45:07.354Z,2.45
2019-02-12T21:50:06.796Z,2.42
2019-02-12T21:55:06.548Z,2.42
2019-02-12T21:59:06.430Z,2.42
2019-02-12T22:04:07.392Z,2.59
2019-02-12T22:09:07.785Z,2.78
2019-02-12T22:14:06.393Z,2.88
2019-02-12T22:19:07.060Z,2.8
2019-02-12T22:24:06.776Z,2.62
2019-02-12T22:29:07.056Z,2.35
2019-02-12T22:33:06.048Z,2.02
2019-02-12T22:38:06.765Z,1.7
2019-02-12T22:43:06.269Z,1.7
2019-02-12T22:48:07.135Z,1.7
2019-02-12T22:53:06.071Z,1.85
2019-02-12T22:58:06.739Z,2.11
2019-02-12T23:03:06.874Z,2.22
2019-02-12T23:08:06.387Z,2.14
2019-02-12T23:12:06.436Z,2.12
2019-02-12T23:17:06.224Z,2.13
2019-02-12T23:22:06.058Z,2.28
2019-02-12T23:27:06.828Z,2.41
2019-02-12T23:32:06.513Z,2.68
2019-02-12T23:37:06.151Z,2.91
2019-02-12T23:42:06.252Z,2.95
2019-02-12T23:46:07.553Z,2.99
2019-02-12T23:51:07.299Z,2.91
2019-02-12T23:56:07.100Z,2.98
